createdAt,value
2022-08-19T00:01:53.782Z,88.21
2022-08-19T00:05:02.091Z,88.02
2022-08-19T00:08:10.369Z,88.12
2022-08-19T00:11:18.652Z,88.12
2022-08-19T00:14:22.575Z,88.32
2022-08-19T00:17:30.902Z,88.32
2022-08-19T00:20:38.442Z,88.32
2022-08-19T00:23:46.628Z,88.52
2022-08-19T00:26:54.986Z,88.32
2022-08-19T00:30:02.428Z,88.42
2022-08-19T00:33:10.502Z,88.21
2022-08-19T00:36:18.439Z,88.62
2022-08-19T00:39:26.371Z,88.52
2022-08-19T00:42:34.412Z,88.21
2022-08-19T00:45:42.302Z,88.16
2022-08-19T00:48:50.843Z,88.21
2022-08-19T00:51:58.439Z,88.12
2022-08-19T00:55:07.005Z,88.06
2022-08-19T00:58:15.468Z,87.96
2022-08-19T01:01:23.128Z,88.06
2022-08-19T01:04:31.542Z,88.16
2022-08-19T01:07:39.960Z,88.46
2022-08-19T01:10:47.581Z,88.16
2022-08-19T01:13:56.003Z,88.36
2022-08-19T01:17:03.815Z,87.96
2022-08-19T01:20:11.654Z,87.86
2022-08-19T01:23:20.068Z,87.76
2022-08-19T01:26:28.114Z,87.55
2022-08-19T01:29:36.112Z,87.66
2022-08-19T01:32:45.051Z,87.70
2022-08-19T01:35:53.200Z,87.60
2022-08-19T01:39:00.904Z,87.90
2022-08-19T01:42:09.062Z,87.50
2022-08-19T01:45:17.174Z,87.60
2022-08-19T01:48:25.105Z,87.94
2022-08-19T01:51:39.597Z,88.04
2022-08-19T01:54:37.097Z,88.24
2022-08-19T01:57:45.441Z,88.14
2022-08-19T02:00:53.413Z,87.84
2022-08-19T02:04:01.301Z,87.78
2022-08-19T02:07:09.383Z,88.09
2022-08-19T02:10:17.924Z,88.39
2022-08-19T02:13:26.503Z,88.09
2022-08-19T02:16:34.484Z,88.18
2022-08-19T02:19:42.757Z,88.09
2022-08-19T02:22:50.748Z,88.48
2022-08-19T02:25:58.467Z,88.29
2022-08-19T02:29:06.856Z,88.53
2022-08-19T02:32:14.519Z,88.53
2022-08-19T02:35:22.971Z,88.23
2022-08-19T02:38:31.353Z,88.32
2022-08-19T02:41:38.810Z,88.02
2022-08-19T02:44:47.022Z,87.93
2022-08-19T02:47:54.863Z,88.23
2022-08-19T02:51:03.074Z,88.32
2022-08-19T02:54:10.959Z,88.23
2022-08-19T02:57:19.179Z,88.67
2022-08-19T03:00:27.182Z,88.77
2022-08-19T03:03:35.724Z,88.87
2022-08-19T03:06:43.695Z,89.22
2022-08-19T03:09:51.694Z,89.62
2022-08-19T03:12:59.673Z,89.92
2022-08-19T03:16:01.866Z,89.92
2022-08-19T03:19:09.858Z,89.82
2022-08-19T03:22:17.844Z,90.22
2022-08-19T03:25:26.159Z,90.32
2022-08-19T03:28:34.132Z,90.22
2022-08-19T03:31:51.184Z,90.02
2022-08-19T03:34:48.634Z,90.02
2022-08-19T03:37:57.119Z,90.02
2022-08-19T03:41:04.922Z,90.12
2022-08-19T03:44:17.683Z,89.82
2022-08-19T03:47:16.232Z,90.02
2022-08-19T03:50:24.107Z,89.92
2022-08-19T03:53:32.128Z,89.62
2022-08-19T03:56:39.778Z,89.72
2022-08-19T03:59:47.816Z,89.96
2022-08-19T04:03:00.269Z,90.06
2022-08-19T04:05:58.015Z,90.26
2022-08-19T04:09:06.508Z,90.16
2022-08-19T04:12:14.455Z,90.46
2022-08-19T04:15:22.144Z,90.36
2022-08-19T04:18:33.578Z,90.46
2022-08-19T04:21:33.115Z,90.06
2022-08-19T04:24:41.408Z,90.16
2022-08-19T04:27:49.308Z,90.30
2022-08-19T04:30:56.804Z,90.61
2022-08-19T04:34:04.861Z,90.81
2022-08-19T04:37:12.718Z,90.81
2022-08-19T04:40:20.507Z,90.70
2022-08-19T04:43:28.685Z,90.70
2022-08-19T04:46:39.159Z,90.30
2022-08-19T04:49:41.824Z,90.41
2022-08-19T04:52:49.763Z,90.30
2022-08-19T04:55:57.911Z,90.30
2022-08-19T04:59:05.820Z,90.20
2022-08-19T05:02:13.739Z,90.61
2022-08-19T05:05:21.908Z,90.61
2022-08-19T05:08:30.667Z,90.61
2022-08-19T05:11:39.411Z,90.55
2022-08-19T05:14:47.193Z,90.15
2022-08-19T05:17:55.205Z,90.45
2022-08-19T05:21:03.496Z,90.65
2022-08-19T05:24:11.296Z,90.65
2022-08-19T05:27:19.287Z,90.45
2022-08-19T05:30:46.010Z,90.45
2022-08-19T05:33:32.657Z,90.34
2022-08-19T05:36:41.610Z,90.50
2022-08-19T05:39:51.689Z,91.01
2022-08-19T05:42:59.360Z,91.01
2022-08-19T05:46:07.223Z,90.91
2022-08-19T05:49:15.395Z,90.70
2022-08-19T05:52:25.563Z,90.85
2022-08-19T05:55:23.899Z,90.70
2022-08-19T05:58:32.237Z,90.11
2022-08-19T06:01:39.718Z,89.70
2022-08-19T06:04:47.616Z,89.40
2022-08-19T06:07:55.658Z,89.10
2022-08-19T06:11:03.512Z,89.30
2022-08-19T06:14:16.587Z,89.40
2022-08-19T06:17:13.725Z,89.30
2022-08-19T06:20:39.837Z,88.90
2022-08-19T06:23:27.446Z,89.30
2022-08-19T06:26:35.381Z,89.40
2022-08-19T06:29:43.667Z,88.79
2022-08-19T06:32:51.728Z,88.49
2022-08-19T06:36:00.851Z,88.59
2022-08-19T06:39:09.117Z,88.90
2022-08-19T06:42:16.944Z,88.79
2022-08-19T06:45:34.939Z,88.45
2022-08-19T06:48:31.144Z,87.55
2022-08-19T06:51:41.536Z,87.65
2022-08-19T06:54:56.059Z,87.24
2022-08-19T06:57:53.947Z,87.85
2022-08-19T07:01:05.651Z,87.65
2022-08-19T07:04:05.719Z,86.94
2022-08-19T07:07:21.430Z,87.29
2022-08-19T07:10:18.630Z,86.88
2022-08-19T07:13:26.193Z,87.08
2022-08-19T07:16:34.464Z,87.24
2022-08-19T07:19:42.823Z,86.24
2022-08-19T07:22:51.527Z,86.54
2022-08-19T07:25:59.830Z,86.14
2022-08-19T07:29:07.819Z,85.84
2022-08-19T07:32:15.569Z,86.04
2022-08-19T07:35:23.919Z,86.04
2022-08-19T07:38:31.409Z,85.84
2022-08-19T07:41:39.711Z,85.64
2022-08-19T07:44:49.800Z,85.24
2022-08-19T07:47:51.215Z,85.24
2022-08-19T07:50:49.442Z,85.14
2022-08-19T07:53:57.404Z,85.33
2022-08-19T07:57:06.557Z,85.24
2022-08-19T08:00:15.378Z,84.83
2022-08-19T08:03:23.791Z,85.33
2022-08-19T08:06:32.198Z,84.80
2022-08-19T08:09:40.518Z,84.80
2022-08-19T08:13:08.881Z,85.39
2022-08-19T08:15:56.305Z,84.80
2022-08-19T08:19:14.733Z,85.10
2022-08-19T08:22:10.635Z,84.49
2022-08-19T08:25:18.536Z,84.69
2022-08-19T08:28:30.052Z,84.35
2022-08-19T08:31:38.708Z,83.65
2022-08-19T08:34:47.384Z,83.45
2022-08-19T08:37:51.087Z,83.35
2022-08-19T08:40:59.781Z,83.35
2022-08-19T08:44:07.759Z,83.04
2022-08-19T08:47:17.893Z,82.34
2022-08-19T08:50:26.419Z,83.01
2022-08-19T08:53:39.068Z,82.17
2022-08-19T08:56:38.477Z,80.86
2022-08-19T08:59:47.683Z,80.32
2022-08-19T09:02:55.508Z,79.82
2022-08-19T09:06:04.259Z,79.02
2022-08-19T09:09:12.901Z,78.98
2022-08-19T09:12:26.807Z,76.64
2022-08-19T09:15:29.934Z,76.34
2022-08-19T09:18:29.996Z,76.70
2022-08-19T09:21:38.813Z,76.00
2022-08-19T09:24:48.637Z,76.60
2022-08-19T09:28:03.074Z,75.50
2022-08-19T09:31:02.683Z,75.70
2022-08-19T09:34:21.283Z,76.10
2022-08-19T09:37:16.438Z,75.50
2022-08-19T09:40:24.988Z,76.04
2022-08-19T09:43:44.265Z,76.74
2022-08-19T09:46:39.734Z,76.30
2022-08-19T09:49:47.696Z,75.50
2022-08-19T09:52:57.903Z,75.50
2022-08-19T09:56:06.390Z,75.70
2022-08-19T09:59:16.633Z,75.80
2022-08-19T10:02:25.679Z,75.70
2022-08-19T10:05:26.979Z,75.70
2022-08-19T10:08:35.691Z,75.10
2022-08-19T10:11:52.551Z,74.70
2022-08-19T10:14:49.694Z,75.16
2022-08-19T10:17:58.721Z,74.56
2022-08-19T10:21:07.688Z,74.43
2022-08-19T10:24:17.441Z,73.46
2022-08-19T10:27:27.148Z,72.89
2022-08-19T10:30:36.021Z,73.29
2022-08-19T10:33:53.366Z,73.06
2022-08-19T10:36:56.508Z,72.06
2022-08-19T10:39:56.182Z,72.96
2022-08-19T10:43:04.671Z,73.36
2022-08-19T10:46:14.245Z,73.69
2022-08-19T10:49:13.836Z,73.39
2022-08-19T10:52:25.969Z,72.79
2022-08-19T10:55:29.257Z,73.32
2022-08-19T10:58:37.582Z,71.19
2022-08-19T11:01:46.662Z,71.36
2022-08-19T11:04:54.600Z,69.76
2022-08-19T11:08:03.644Z,69.23
2022-08-19T11:11:09.325Z,71.06
2022-08-19T11:14:17.866Z,70.26
2022-08-19T11:17:26.304Z,69.20
2022-08-19T11:20:35.168Z,69.16
2022-08-19T11:23:43.498Z,68.23
2022-08-19T11:26:52.463Z,67.27
2022-08-19T11:30:00.444Z,65.52
2022-08-19T11:33:09.535Z,65.52
2022-08-19T11:36:17.805Z,64.62
2022-08-19T11:39:26.265Z,66.47
2022-08-19T11:42:34.996Z,65.05
2022-08-19T11:45:43.008Z,64.62
2022-08-19T11:48:52.032Z,64.62
2022-08-19T11:52:00.318Z,64.82
2022-08-19T11:55:08.997Z,64.72
2022-08-19T11:58:18.818Z,64.62
2022-08-19T12:01:27.744Z,65.42
2022-08-19T12:04:36.508Z,64.82
2022-08-19T12:07:45.060Z,64.72
2022-08-19T12:10:53.479Z,64.56
2022-08-19T12:14:01.793Z,64.29
2022-08-19T12:17:10.521Z,65.81
2022-08-19T12:20:19.684Z,66.38
2022-08-19T12:23:28.084Z,64.98
2022-08-19T12:26:53.328Z,65.31
2022-08-19T12:29:41.566Z,65.72
2022-08-19T12:32:50.077Z,65.12
2022-08-19T12:35:57.510Z,65.42
2022-08-19T12:39:06.053Z,64.09
2022-08-19T12:42:14.475Z,65.61
2022-08-19T12:45:22.060Z,65.58
2022-08-19T12:48:34.237Z,63.96
2022-08-19T12:51:31.632Z,63.93
2022-08-19T12:54:40.046Z,62.94
2022-08-19T12:57:48.104Z,62.74
2022-08-19T13:00:55.911Z,64.40
2022-08-19T13:04:04.281Z,63.54
2022-08-19T13:07:12.164Z,63.34
2022-08-19T13:10:20.230Z,63.27
2022-08-19T13:13:28.188Z,63.54
2022-08-19T13:16:36.647Z,63.04
2022-08-19T13:19:44.856Z,62.34
2022-08-19T13:22:53.757Z,64.43
2022-08-19T13:26:01.770Z,62.61
2022-08-19T13:29:10.700Z,62.94
2022-08-19T13:32:19.822Z,63.83
2022-08-19T13:35:27.939Z,63.54
2022-08-19T13:38:36.665Z,62.74
2022-08-19T13:41:44.536Z,62.61
2022-08-19T13:44:53.547Z,62.54
2022-08-19T13:48:02.716Z,63.13
2022-08-19T13:51:12.691Z,63.60
2022-08-19T13:54:21.661Z,61.91
2022-08-19T13:57:30.275Z,62.12
2022-08-19T14:00:38.846Z,63.34
2022-08-19T14:03:47.458Z,63.13
2022-08-19T14:06:55.962Z,62.58
2022-08-19T14:10:03.998Z,62.65
2022-08-19T14:13:12.538Z,60.61
2022-08-19T14:16:20.346Z,60.64
2022-08-19T14:19:30.133Z,60.64
2022-08-19T14:22:38.323Z,61.29
2022-08-19T14:25:46.452Z,62.78
2022-08-19T14:28:53.986Z,61.46
2022-08-19T14:32:02.006Z,61.56
2022-08-19T14:35:09.847Z,61.33
2022-08-19T14:38:17.674Z,60.91
2022-08-19T14:41:25.969Z,60.88
2022-08-19T14:44:33.404Z,58.60
2022-08-19T14:47:41.627Z,59.84
2022-08-19T14:50:49.665Z,60.31
2022-08-19T14:53:57.171Z,59.42
2022-08-19T14:57:06.587Z,61.47
2022-08-19T15:00:15.980Z,60.28
2022-08-19T15:03:23.535Z,59.72
2022-08-19T15:06:32.079Z,59.12
2022-08-19T15:09:39.782Z,58.80
2022-08-19T15:12:51.155Z,59.03
2022-08-19T15:15:49.196Z,60.81
2022-08-19T15:18:57.047Z,58.80
2022-08-19T15:22:05.035Z,58.92
2022-08-19T15:25:13.228Z,59.32
2022-08-19T15:28:22.558Z,58.70
2022-08-19T15:31:30.432Z,58.40
2022-08-19T15:34:38.293Z,58.80
2022-08-19T15:37:46.526Z,58.01
2022-08-19T15:40:54.395Z,58.47
2022-08-19T15:44:02.173Z,58.80
2022-08-19T15:47:10.198Z,58.30
2022-08-19T15:50:17.580Z,58.01
2022-08-19T15:53:25.749Z,58.75
2022-08-19T15:56:33.851Z,59.65
2022-08-19T15:59:47.464Z,59.94
2022-08-19T16:02:44.681Z,60.27
2022-08-19T16:05:53.794Z,60.37
2022-08-19T16:09:02.031Z,60.37
2022-08-19T16:12:10.287Z,60.07
2022-08-19T16:15:17.769Z,60.44
2022-08-19T16:18:25.970Z,60.14
2022-08-19T16:21:33.702Z,60.57
2022-08-19T16:24:41.533Z,61.26
2022-08-19T16:28:06.662Z,61.10
2022-08-19T16:30:54.942Z,61.07
2022-08-19T16:34:02.777Z,60.67
2022-08-19T16:37:11.086Z,60.67
2022-08-19T16:40:18.903Z,60.67
2022-08-19T16:43:26.731Z,60.86
2022-08-19T16:46:34.876Z,60.77
2022-08-19T16:49:53.947Z,61.29
2022-08-19T16:52:47.985Z,61.10
2022-08-19T16:55:57.489Z,61.72
2022-08-19T16:59:05.557Z,62.21
2022-08-19T17:02:13.090Z,62.54
2022-08-19T17:05:21.214Z,63.37
2022-08-19T17:08:29.352Z,63.24
2022-08-19T17:11:37.133Z,63.37
2022-08-19T17:14:45.728Z,63.86
2022-08-19T17:17:54.256Z,64.76
2022-08-19T17:21:01.877Z,64.36
2022-08-19T17:24:10.355Z,64.49
2022-08-19T17:27:18.870Z,65.28
2022-08-19T17:30:26.292Z,65.68
2022-08-19T17:33:34.481Z,66.08
2022-08-19T17:36:38.770Z,66.61
2022-08-19T17:39:46.302Z,67.30
2022-08-19T17:42:54.986Z,66.94
2022-08-19T17:46:02.907Z,68.63
2022-08-19T17:49:10.416Z,67.74
2022-08-19T17:52:18.657Z,67.77
2022-08-19T17:55:26.727Z,69.66
2022-08-19T17:58:34.340Z,70.89
2022-08-19T18:01:52.373Z,71.78
2022-08-19T18:04:48.995Z,72.52
2022-08-19T18:07:56.827Z,72.75
2022-08-19T18:11:04.438Z,73.14
2022-08-19T18:14:12.126Z,73.35
2022-08-19T18:17:19.919Z,72.78
2022-08-19T18:20:27.601Z,73.48
2022-08-19T18:23:45.468Z,74.91
2022-08-19T18:26:40.812Z,75.35
2022-08-19T18:29:48.884Z,75.74
2022-08-19T18:32:56.955Z,75.78
2022-08-19T18:36:04.466Z,75.98
2022-08-19T18:39:07.900Z,76.82
2022-08-19T18:42:16.108Z,77.86
2022-08-19T18:45:23.599Z,78.59
2022-08-19T18:48:31.323Z,78.19
2022-08-19T18:51:38.712Z,78.93
2022-08-19T18:54:46.502Z,78.83
2022-08-19T18:57:54.557Z,78.63
2022-08-19T19:01:02.305Z,78.53
2022-08-19T19:04:10.253Z,78.56
2022-08-19T19:07:17.998Z,78.67
2022-08-19T19:10:26.287Z,78.77
2022-08-19T19:13:33.740Z,79.57
2022-08-19T19:16:41.749Z,79.91
2022-08-19T19:19:49.691Z,79.91
2022-08-19T19:22:58.245Z,80.11
2022-08-19T19:26:07.095Z,80.30
2022-08-19T19:29:15.154Z,80.65
2022-08-19T19:32:22.748Z,80.54
2022-08-19T19:35:30.787Z,80.74
2022-08-19T19:38:38.711Z,80.85
2022-08-19T19:41:46.279Z,80.94
2022-08-19T19:44:54.862Z,81.09
2022-08-19T19:48:02.491Z,81.38
2022-08-19T19:51:10.463Z,81.38
2022-08-19T19:54:23.334Z,81.29
2022-08-19T19:57:20.256Z,81.48
2022-08-19T20:00:28.237Z,81.68
2022-08-19T20:03:36.857Z,81.99
2022-08-19T20:06:44.519Z,82.03
2022-08-19T20:09:59.856Z,82.29
2022-08-19T20:12:56.296Z,82.49
2022-08-19T20:16:04.022Z,82.39
2022-08-19T20:19:11.994Z,82.29
2022-08-19T20:22:19.464Z,82.18
2022-08-19T20:25:27.948Z,82.39
2022-08-19T20:28:37.163Z,82.18
2022-08-19T20:31:57.335Z,82.29
2022-08-19T20:34:50.910Z,82.69
2022-08-19T20:37:58.668Z,82.15
2022-08-19T20:41:07.432Z,82.24
2022-08-19T20:44:15.940Z,82.15
2022-08-19T20:47:23.635Z,81.74
2022-08-19T20:50:31.507Z,81.65
2022-08-19T20:53:39.824Z,81.95
2022-08-19T20:56:47.471Z,81.74
2022-08-19T20:59:55.543Z,81.74
2022-08-19T21:03:03.644Z,82.09
2022-08-19T21:06:11.440Z,82.59
2022-08-19T21:09:22.003Z,82.39
2022-08-19T21:12:29.900Z,82.59
2022-08-19T21:15:37.864Z,82.59
2022-08-19T21:18:46.091Z,82.49
2022-08-19T21:21:53.913Z,82.09
2022-08-19T21:25:01.656Z,82.29
2022-08-19T21:28:09.959Z,82.49
2022-08-19T21:31:17.820Z,82.49
2022-08-19T21:34:25.719Z,82.69
2022-08-19T21:37:33.532Z,82.29
2022-08-19T21:40:41.731Z,82.69
2022-08-19T21:43:49.187Z,83.03
2022-08-19T21:46:57.265Z,83.93
2022-08-19T21:50:05.521Z,84.67
2022-08-19T21:53:14.014Z,84.67
2022-08-19T21:56:14.917Z,84.37
2022-08-19T21:59:23.100Z,84.47
2022-08-19T22:02:30.552Z,84.67
2022-08-19T22:05:38.919Z,84.23
2022-08-19T22:08:47.410Z,83.83
2022-08-19T22:11:54.922Z,83.49
2022-08-19T22:15:03.225Z,83.09
2022-08-19T22:18:11.524Z,83.23
2022-08-19T22:21:39.681Z,83.63
2022-08-19T22:24:24.605Z,83.83
2022-08-19T22:27:32.628Z,83.69
2022-08-19T22:30:41.654Z,83.29
2022-08-19T22:33:49.996Z,82.79
2022-08-19T22:36:57.958Z,83.23
2022-08-19T22:40:05.885Z,83.73
2022-08-19T22:43:14.013Z,84.13
2022-08-19T22:46:21.846Z,84.37
2022-08-19T22:49:29.798Z,84.83
2022-08-19T22:52:37.756Z,84.63
2022-08-19T22:55:45.898Z,84.33
2022-08-19T22:58:53.701Z,83.93
2022-08-19T23:02:01.681Z,83.93
2022-08-19T23:05:09.101Z,84.13
2022-08-19T23:08:16.904Z,84.33
2022-08-19T23:11:24.745Z,84.13
2022-08-19T23:14:32.485Z,84.33
2022-08-19T23:17:40.795Z,84.03
2022-08-19T23:20:48.835Z,83.93
2022-08-19T23:23:56.799Z,84.33
2022-08-19T23:27:04.928Z,84.63
2022-08-19T23:30:13.342Z,84.77
2022-08-19T23:33:21.206Z,85.38
2022-08-19T23:36:29.195Z,85.58
2022-08-19T23:39:37.579Z,86.08
2022-08-19T23:42:37.595Z,86.32
2022-08-19T23:45:51.064Z,86.62
2022-08-19T23:48:48.830Z,86.32
2022-08-19T23:51:56.357Z,85.78
2022-08-19T23:55:04.691Z,85.38
2022-08-19T23:58:13.071Z,85.61
